Southern Shores, North Carolina
Current Conditions -  °F | °C
As of 10:55 AM on Sunday 23 Nov 2014 (Local Time) from KFFA Reporting Station
Scattered Clouds Scattered Clouds  
Wind Chill: 61°   Ceiling: Unl
Heat Index: 61°   Visibility: 10mi
Dew Point: 51°   Wind: 3mph
Humidity: 69%   Direction: 140°SE
Pressure: 30.26"   Gusts: NA
Location:  36.1034°N, 75.7289°W
Report Text: KFFA 231555Z AUTO 14003KT 10SM SCT120 16/11 A3026 RMK AO2 T01630107
Loading
Personal Weather Stations






























Interactive Weather Map New forecast layout! Learn more

10-Day Weather Forecast

Advertisements
Track Severe Weather on mobile